createdAt,value
2018-04-12T00:00:43.684Z,7.00
2018-04-12T00:03:09.790Z,7.00
2018-04-12T00:05:35.914Z,7.00
2018-04-12T00:08:02.026Z,7.00
2018-04-12T00:10:28.133Z,7.00
2018-04-12T00:12:54.241Z,6.90
2018-04-12T00:15:20.381Z,6.90
2018-04-12T00:17:47.259Z,6.90
2018-04-12T00:20:13.363Z,6.90
2018-04-12T00:22:39.482Z,6.90
2018-04-12T00:25:05.567Z,6.90
2018-04-12T00:27:32.405Z,6.90
2018-04-12T00:29:58.540Z,6.80
2018-04-12T00:32:24.667Z,6.80
2018-04-12T00:34:50.789Z,6.80
2018-04-12T00:37:16.897Z,6.80
2018-04-12T00:39:43.145Z,6.70
2018-04-12T00:42:09.242Z,6.70
2018-04-12T00:44:36.085Z,6.70
2018-04-12T00:47:02.200Z,6.70
2018-04-12T00:49:28.341Z,6.60
2018-04-12T00:51:54.437Z,6.60
2018-04-12T00:54:20.562Z,6.50
2018-04-12T00:56:47.408Z,6.50
2018-04-12T00:59:13.501Z,6.50
2018-04-12T01:01:39.639Z,6.60
2018-04-12T01:04:05.751Z,6.50
2018-04-12T01:06:31.869Z,6.50
2018-04-12T01:08:57.994Z,6.50
2018-04-12T01:11:24.097Z,6.50
2018-04-12T01:13:50.181Z,6.50
2018-04-12T01:16:17.049Z,6.40
2018-04-12T01:18:43.910Z,6.40
2018-04-12T01:21:10.021Z,6.40
2018-04-12T01:23:36.121Z,6.40
2018-04-12T01:26:02.233Z,6.30
2018-04-12T01:28:28.358Z,6.30
2018-04-12T01:30:55.237Z,6.30
2018-04-12T01:33:21.349Z,6.30
2018-04-12T01:35:48.249Z,6.30
2018-04-12T01:38:15.208Z,6.30
2018-04-12T01:40:41.606Z,6.30
2018-04-12T01:43:08.456Z,6.20
2018-04-12T01:45:35.306Z,6.20
2018-04-12T01:48:01.426Z,6.20
2018-04-12T01:50:27.547Z,6.20
2018-04-12T01:52:53.665Z,6.20
2018-04-12T01:55:19.817Z,6.20
2018-04-12T01:57:45.938Z,6.20
2018-04-12T02:00:12.049Z,6.20
2018-04-12T02:02:38.901Z,6.20
2018-04-12T02:05:05.042Z,6.10
2018-04-12T02:07:31.903Z,6.00
2018-04-12T02:09:58.755Z,6.00
2018-04-12T02:12:25.609Z,6.00
2018-04-12T02:14:52.510Z,6.00
2018-04-12T02:17:18.622Z,6.00
2018-04-12T02:19:44.702Z,6.00
2018-04-12T02:22:10.830Z,6.00
2018-04-12T02:24:36.914Z,6.00
2018-04-12T02:27:03.782Z,6.00
2018-04-12T02:29:30.614Z,6.00
2018-04-12T02:31:56.752Z,6.00
2018-04-12T02:34:22.906Z,6.00
2018-04-12T02:36:49.738Z,5.80
2018-04-12T02:39:15.869Z,5.80
2018-04-12T02:41:41.975Z,5.80
2018-04-12T02:44:08.121Z,5.80
2018-04-12T02:46:34.266Z,5.80
2018-04-12T02:49:00.373Z,5.80
2018-04-12T02:51:26.747Z,5.80
2018-04-12T02:53:52.840Z,5.80
2018-04-12T02:56:19.708Z,5.70
2018-04-12T02:58:46.580Z,5.70
2018-04-12T03:01:12.690Z,5.70
2018-04-12T03:03:39.567Z,5.60
2018-04-12T03:06:05.694Z,5.60
2018-04-12T03:08:31.785Z,5.50
2018-04-12T03:10:57.910Z,5.60
2018-04-12T03:13:24.021Z,5.60
2018-04-12T03:15:50.424Z,5.60
2018-04-12T03:18:16.524Z,5.50
2018-04-12T03:20:42.675Z,5.50
2018-04-12T03:23:08.801Z,5.50
2018-04-12T03:25:34.900Z,5.50
2018-04-12T03:28:01.008Z,5.50
2018-04-12T03:30:27.108Z,5.50
2018-04-12T03:32:53.257Z,5.50
2018-04-12T03:35:19.389Z,5.50
2018-04-12T03:37:45.523Z,5.50
2018-04-12T03:40:11.674Z,5.50
2018-04-12T03:42:37.819Z,5.50
2018-04-12T03:45:03.930Z,5.40
2018-04-12T03:47:30.059Z,5.50
2018-04-12T03:49:56.145Z,5.40
2018-04-12T03:52:22.268Z,5.40
2018-04-12T03:54:48.392Z,5.40
2018-04-12T03:57:14.525Z,5.30
2018-04-12T03:59:40.685Z,5.40
2018-04-12T04:02:06.809Z,5.40
2018-04-12T04:04:32.915Z,5.30
2018-04-12T04:06:59.819Z,5.40
2018-04-12T04:09:25.930Z,5.40
2018-04-12T04:11:52.749Z,5.50
2018-04-12T04:14:31.453Z,5.40
2018-04-12T04:17:10.488Z,5.40
2018-04-12T04:19:49.298Z,5.40
2018-04-12T04:22:15.400Z,5.40
2018-04-12T04:24:41.513Z,5.40
2018-04-12T04:27:07.665Z,5.40
2018-04-12T04:29:33.870Z,5.40
2018-04-12T04:32:00.016Z,5.40
2018-04-12T04:34:26.141Z,5.40
2018-04-12T04:36:52.249Z,5.30
2018-04-12T04:39:18.343Z,5.30
2018-04-12T04:41:44.453Z,5.30
2018-04-12T04:44:10.603Z,5.30
2018-04-12T04:46:36.718Z,5.30
2018-04-12T04:49:02.888Z,5.40
2018-04-12T04:51:29.822Z,5.50
2018-04-12T04:53:56.115Z,5.40
2018-04-12T04:56:22.342Z,5.50
2018-04-12T04:58:48.468Z,5.50
2018-04-12T05:01:14.595Z,5.50
2018-04-12T05:03:40.699Z,5.50
2018-04-12T05:06:07.633Z,5.50
2018-04-12T05:08:33.778Z,5.50
2018-04-12T05:10:59.955Z,5.60
2018-04-12T05:13:26.057Z,5.60
2018-04-12T05:15:52.196Z,5.60
2018-04-12T05:18:18.332Z,5.60
2018-04-12T05:20:44.484Z,5.70
2018-04-12T05:23:10.643Z,5.80
2018-04-12T05:25:36.776Z,5.80
2018-04-12T05:28:02.902Z,6.00
2018-04-12T05:30:29.031Z,6.10
2018-04-12T05:32:55.171Z,6.20
2018-04-12T05:35:21.282Z,6.20
2018-04-12T05:37:47.417Z,6.30
2018-04-12T05:40:13.537Z,6.40
2018-04-12T05:42:39.642Z,6.50
2018-04-12T05:45:06.527Z,6.70
2018-04-12T05:47:32.668Z,6.70
2018-04-12T05:49:58.765Z,6.70
2018-04-12T05:52:24.889Z,6.90
2018-04-12T05:54:50.991Z,6.90
2018-04-12T05:57:17.109Z,7.00
2018-04-12T05:59:46.057Z,7.10
2018-04-12T06:02:12.377Z,7.10
2018-04-12T06:04:38.537Z,7.20
2018-04-12T06:07:04.796Z,7.30
2018-04-12T06:09:30.919Z,7.40
2018-04-12T06:11:57.014Z,7.50
2018-04-12T06:14:23.134Z,7.50
2018-04-12T06:16:49.988Z,7.70
2018-04-12T06:19:16.886Z,7.80
2018-04-12T06:21:42.985Z,7.80
2018-04-12T06:24:09.871Z,7.90
2018-04-12T06:26:35.988Z,7.90
2018-04-12T06:29:02.851Z,8.30
2018-04-12T06:31:29.702Z,8.40
2018-04-12T06:33:55.846Z,8.30
2018-04-12T06:36:22.691Z,8.50
2018-04-12T06:38:49.536Z,8.60
2018-04-12T06:41:15.713Z,8.60
2018-04-12T06:43:41.806Z,8.80
2018-04-12T06:46:10.663Z,8.90
2018-04-12T06:48:36.927Z,8.90
2018-04-12T06:51:03.046Z,8.90
2018-04-12T06:53:29.172Z,8.90
2018-04-12T06:55:55.330Z,9.00
2018-04-12T06:58:21.490Z,9.00
2018-04-12T07:00:47.655Z,9.00
2018-04-12T07:03:13.818Z,9.00
2018-04-12T07:05:40.147Z,9.10
2018-04-12T07:08:06.261Z,9.10
2018-04-12T07:10:32.380Z,9.10
2018-04-12T07:12:58.519Z,9.10
2018-04-12T07:15:24.606Z,9.10
2018-04-12T07:17:51.530Z,9.10
2018-04-12T07:20:17.646Z,9.10
2018-04-12T07:22:43.773Z,8.90
2018-04-12T07:25:09.901Z,8.80
2018-04-12T07:27:36.049Z,8.80
2018-04-12T07:30:02.172Z,8.80
2018-04-12T07:32:28.290Z,8.90
2018-04-12T07:34:55.145Z,9.00
2018-04-12T07:37:21.289Z,9.00
2018-04-12T07:39:48.194Z,9.20
2018-04-12T07:42:14.360Z,9.20
2018-04-12T07:44:40.473Z,9.20
2018-04-12T07:47:06.598Z,9.30
2018-04-12T07:49:32.718Z,9.20
2018-04-12T07:51:58.840Z,9.20
2018-04-12T07:54:24.997Z,9.30
2018-04-12T07:56:51.131Z,9.40
2018-04-12T07:59:17.265Z,9.60
2018-04-12T08:01:43.432Z,9.50
2018-04-12T08:04:10.306Z,9.50
2018-04-12T08:06:36.581Z,9.40
2018-04-12T08:09:02.745Z,9.50
2018-04-12T08:11:28.909Z,9.50
2018-04-12T08:13:55.005Z,9.50
2018-04-12T08:16:21.956Z,9.70
2018-04-12T08:18:48.787Z,9.90
2018-04-12T08:21:14.910Z,9.90
2018-04-12T08:23:41.097Z,10.10
2018-04-12T08:26:07.272Z,10.40
2018-04-12T08:28:34.152Z,10.90
2018-04-12T08:31:00.310Z,10.90
2018-04-12T08:33:26.798Z,11.20
2018-04-12T08:35:52.937Z,11.60
2018-04-12T08:38:19.047Z,11.70
2018-04-12T08:40:45.173Z,12.00
2018-04-12T08:43:11.303Z,12.30
2018-04-12T08:45:37.414Z,12.20
2018-04-12T08:48:04.274Z,12.70
2018-04-12T08:50:30.379Z,12.60
2018-04-12T08:52:57.285Z,13.20
2018-04-12T08:55:23.411Z,13.20
2018-04-12T08:57:49.588Z,13.40
2018-04-12T09:00:15.702Z,13.80
2018-04-12T09:02:41.856Z,14.10
2018-04-12T09:05:07.969Z,14.20
2018-04-12T09:07:34.062Z,14.40
2018-04-12T09:10:00.947Z,14.50
2018-04-12T09:12:27.035Z,14.50
2018-04-12T09:14:53.235Z,14.30
2018-04-12T09:17:19.350Z,14.60
2018-04-12T09:19:45.473Z,14.60
2018-04-12T09:22:12.322Z,14.90
2018-04-12T09:24:38.490Z,14.90
2018-04-12T09:27:04.696Z,14.70
2018-04-12T09:29:30.777Z,14.60
2018-04-12T09:31:56.996Z,14.60
2018-04-12T09:34:23.131Z,14.50
2018-04-12T09:36:50.217Z,14.60
2018-04-12T09:39:16.391Z,14.60
2018-04-12T09:41:43.607Z,14.80
2018-04-12T09:44:09.720Z,14.80
2018-04-12T09:46:35.853Z,14.80
2018-04-12T09:49:02.013Z,15.00
2018-04-12T09:51:28.137Z,15.10
2018-04-12T09:53:55.006Z,15.60
2018-04-12T09:56:21.140Z,15.60
2018-04-12T09:58:47.256Z,15.70
2018-04-12T10:01:14.223Z,15.90
2018-04-12T10:03:43.129Z,16.30
2018-04-12T10:06:10.084Z,16.90
2018-04-12T10:08:36.264Z,16.90
2018-04-12T10:11:02.408Z,17.00
2018-04-12T10:13:28.496Z,17.10
2018-04-12T10:15:54.645Z,17.10
2018-04-12T10:18:20.756Z,17.10
2018-04-12T10:20:46.885Z,17.20
2018-04-12T10:23:12.981Z,17.20
2018-04-12T10:25:40.259Z,17.40
2018-04-12T10:28:06.389Z,17.80
2018-04-12T10:30:32.524Z,17.80
2018-04-12T10:32:59.447Z,17.80
2018-04-12T10:35:25.609Z,17.90
2018-04-12T10:37:51.753Z,18.00
2018-04-12T10:40:18.625Z,18.60
2018-04-12T10:42:44.820Z,18.60
2018-04-12T10:45:11.780Z,18.60
2018-04-12T10:47:37.931Z,18.60
2018-04-12T10:50:04.111Z,18.90
2018-04-12T10:52:30.267Z,19.00
2018-04-12T10:54:56.388Z,18.90
2018-04-12T10:57:22.502Z,19.00
2018-04-12T10:59:48.641Z,18.90
2018-04-12T11:02:15.510Z,18.70
2018-04-12T11:04:41.933Z,18.70
2018-04-12T11:07:08.837Z,18.70
2018-04-12T11:09:34.992Z,18.60
2018-04-12T11:12:01.137Z,18.80
2018-04-12T11:14:27.298Z,18.80
2018-04-12T11:16:53.450Z,19.10
2018-04-12T11:19:23.982Z,19.30
2018-04-12T11:21:50.181Z,19.30
2018-04-12T11:24:16.412Z,19.40
2018-04-12T11:26:43.467Z,19.60
2018-04-12T11:29:09.610Z,19.60
2018-04-12T11:31:36.186Z,19.80
2018-04-12T11:34:02.350Z,20.10
2018-04-12T11:36:28.506Z,20.30
2018-04-12T11:38:55.474Z,20.00
2018-04-12T11:41:21.683Z,20.00
2018-04-12T11:43:48.117Z,19.90
2018-04-12T11:46:14.276Z,20.00
2018-04-12T11:48:40.545Z,19.80
2018-04-12T11:51:07.619Z,20.10
2018-04-12T11:53:34.565Z,20.20
2018-04-12T11:56:00.733Z,20.10
2018-04-12T11:58:27.149Z,20.00
2018-04-12T12:00:53.387Z,19.90
2018-04-12T12:03:21.218Z,19.90
2018-04-12T12:05:47.798Z,20.30
2018-04-12T12:08:13.945Z,20.70
2018-04-12T12:10:40.793Z,20.80
2018-04-12T12:13:07.705Z,20.90
2018-04-12T12:15:33.878Z,20.90
2018-04-12T12:18:00.014Z,20.80
2018-04-12T12:20:26.185Z,20.50
2018-04-12T12:22:53.059Z,20.50
2018-04-12T12:25:19.184Z,20.50
2018-04-12T12:27:45.416Z,20.50
2018-04-12T12:30:12.297Z,20.20
2018-04-12T12:32:38.429Z,20.20
2018-04-12T12:35:04.785Z,20.00
2018-04-12T12:37:31.058Z,20.00
2018-04-12T13:06:19.138Z,20.80
2018-04-12T13:08:45.328Z,20.90
2018-04-12T13:11:12.246Z,21.00
2018-04-12T13:13:38.414Z,21.00
2018-04-12T13:16:04.718Z,21.10
2018-04-12T13:18:32.119Z,21.10
2018-04-12T13:20:58.242Z,21.20
2018-04-12T13:23:24.478Z,21.00
2018-04-12T13:25:50.597Z,21.10
2018-04-12T13:28:16.767Z,21.10
2018-04-12T13:30:42.958Z,21.20
2018-04-12T13:33:09.159Z,21.30
2018-04-12T13:35:35.286Z,21.40
2018-04-12T13:38:01.409Z,21.50
2018-04-12T13:40:27.495Z,21.30
2018-04-12T13:42:54.382Z,21.40
2018-04-12T13:45:20.531Z,21.40
2018-04-12T13:47:46.717Z,21.70
2018-04-12T13:50:12.862Z,21.90
2018-04-12T13:52:47.893Z,22.00
2018-04-12T13:55:14.775Z,21.70
2018-04-12T14:15:43.805Z,22.10
2018-04-12T14:18:14.830Z,22.50
2018-04-12T14:20:45.222Z,22.50
2018-04-12T14:44:01.272Z,22.40
2018-04-12T14:46:30.038Z,22.50
2018-04-12T14:51:34.503Z,23.10
2018-04-12T14:54:19.088Z,23.00
2018-04-12T14:56:42.952Z,22.90
2018-04-12T14:59:11.627Z,22.60
2018-04-12T15:01:39.385Z,22.30
2018-04-12T15:06:39.425Z,22.00
2018-04-12T15:11:52.140Z,21.70
2018-04-12T15:14:18.796Z,21.60
2018-04-12T15:16:45.376Z,21.50
2018-04-12T15:19:12.531Z,21.40
2018-04-12T15:21:39.367Z,21.40
2018-04-12T15:24:11.517Z,21.50
2018-04-12T15:26:39.557Z,21.70
2018-04-12T15:29:06.563Z,21.90
2018-04-12T15:52:20.002Z,21.60
2018-04-12T15:57:49.986Z,21.70
2018-04-12T16:06:10.575Z,22.10
2018-04-12T16:08:38.829Z,22.70
2018-04-12T16:11:06.874Z,23.30
2018-04-12T16:13:37.989Z,23.80
2018-04-12T16:16:06.619Z,24.60
2018-04-12T16:21:41.921Z,24.90
2018-04-12T16:27:04.780Z,24.20
2018-04-12T16:50:52.449Z,21.30
2018-04-12T16:53:21.783Z,20.80
2018-04-12T17:08:03.908Z,20.10
2018-04-12T17:10:33.551Z,19.80
2018-04-12T19:59:43.333Z,14.50
2018-04-12T20:02:09.478Z,14.40
2018-04-12T20:04:35.615Z,14.30
2018-04-12T20:07:01.731Z,14.20
2018-04-12T20:09:28.597Z,14.00
2018-04-12T20:11:54.699Z,13.90
2018-04-12T20:14:20.891Z,13.90
2018-04-12T20:16:49.731Z,13.80
2018-04-12T20:19:16.114Z,13.70
2018-04-12T20:21:42.228Z,13.60
2018-04-12T20:24:08.378Z,13.50
2018-04-12T20:26:34.553Z,13.50
2018-04-12T20:29:00.664Z,13.40
2018-04-12T20:31:26.805Z,13.30
2018-04-12T20:33:52.979Z,13.20
2018-04-12T20:42:24.821Z,13.00
2018-04-12T20:44:50.951Z,12.90
2018-04-12T20:47:17.066Z,12.90
2018-04-12T20:49:43.292Z,12.80
2018-04-12T20:52:09.401Z,12.70
2018-04-12T20:54:35.536Z,12.70
2018-04-12T20:57:01.635Z,12.60
2018-04-12T20:59:27.738Z,12.60
2018-04-12T21:01:53.858Z,12.50
2018-04-12T21:04:19.977Z,12.50
2018-04-12T21:06:46.101Z,12.40
2018-04-12T21:09:12.252Z,12.40
2018-04-12T21:11:38.410Z,12.40
2018-04-12T21:14:04.530Z,12.50
2018-04-12T21:16:30.641Z,12.40
2018-04-12T21:18:56.866Z,12.30
2018-04-12T21:21:22.971Z,12.30
2018-04-12T21:23:49.070Z,12.20
2018-04-12T21:26:15.245Z,12.10
2018-04-12T21:28:41.426Z,12.10
2018-04-12T21:31:07.537Z,12.00
2018-04-12T21:33:33.680Z,11.90
2018-04-12T21:35:59.791Z,11.90
2018-04-12T21:38:25.932Z,11.80
2018-04-12T21:40:52.022Z,11.80
2018-04-12T21:43:18.220Z,11.70
2018-04-12T21:45:44.379Z,11.80
2018-04-12T21:48:10.492Z,11.70
2018-04-12T21:50:36.625Z,11.70
2018-04-12T21:53:02.750Z,11.60
2018-04-12T21:55:29.017Z,11.50
2018-04-12T21:57:55.223Z,11.40
2018-04-12T22:00:21.381Z,11.40
2018-04-12T22:02:47.666Z,11.40
2018-04-12T22:05:13.996Z,11.30
2018-04-12T22:07:40.137Z,11.30
2018-04-12T22:10:06.334Z,11.20
2018-04-12T22:12:32.435Z,11.10
2018-04-12T22:14:59.327Z,11.00
2018-04-12T22:17:25.496Z,11.00
2018-04-12T22:19:51.769Z,11.00
2018-04-12T22:22:17.919Z,10.90
2018-04-12T22:24:44.038Z,10.90
2018-04-12T22:27:10.181Z,10.80
2018-04-12T22:29:36.452Z,10.80
2018-04-12T22:32:02.632Z,10.70
2018-04-12T22:37:32.196Z,10.60
2018-04-12T22:40:02.421Z,10.60
2018-04-12T22:51:42.754Z,10.40
2018-04-12T22:54:18.602Z,10.30
2018-04-12T22:56:48.414Z,10.20
2018-04-12T22:59:16.117Z,10.30
2018-04-12T23:01:45.156Z,10.20
2018-04-12T23:04:13.391Z,10.20
2018-04-12T23:06:40.574Z,10.10
2018-04-12T23:12:39.596Z,10.00
2018-04-12T23:38:54.017Z,9.50
2018-04-12T23:41:22.083Z,9.50
2018-04-12T23:43:49.406Z,9.40
2018-04-12T23:46:18.847Z,9.40
2018-04-12T23:48:46.283Z,9.30
2018-04-12T23:51:15.871Z,9.40
2018-04-12T23:53:42.362Z,9.30
2018-04-12T23:56:11.885Z,9.30
2018-04-12T23:58:38.563Z,9.30
